Time;durP1;ratioP1;P1;durP2;ratioP2;P2;SDS_P1;SDS_P2;PMS_P1;PMS_P2;Temp;Humidity;BMP_temperature;BMP_pressure;BME280_temperature;BME280_humidity;BME280_pressure;Samples;Min_cycle;Max_cycle;Signal;HPM_P1;HPM_P2
2022/05/15 00:01:24;;;;;;;22.42;7.82;;;11.90;99.90;;;;;;5115385;28;20424;-68
2022/05/15 00:03:49;;;;;;;23.33;7.72;;;11.80;99.90;;;;;;5115862;28;20103;-68
2022/05/15 00:06:15;;;;;;;27.45;8.00;;;;;;;;;;5115769;28;20027;-68
2022/05/15 00:08:41;;;;;;;24.20;8.10;;;11.70;99.90;;;;;;5115628;28;20474;-68
2022/05/15 00:11:11;;;;;;;27.35;8.55;;;11.60;99.90;;;;;;5115676;28;20023;-68
2022/05/15 00:13:37;;;;;;;29.63;8.57;;;11.70;99.90;;;;;;5097326;28;20031;-68
2022/05/15 00:16:03;;;;;;;23.23;8.65;;;11.60;99.90;;;;;;5080460;28;20106;-68
2022/05/15 00:18:29;;;;;;;32.25;8.27;;;11.70;99.90;;;;;;5097199;28;20069;-68
2022/05/15 00:20:54;;;;;;;27.73;8.65;;;11.70;99.90;;;;;;5115356;28;20412;-67
2022/05/15 00:23:22;;;;;;;27.92;9.10;;;11.80;99.90;;;;;;5115383;28;20019;-68
2022/05/15 00:25:48;;;;;;;24.00;8.43;;;11.80;99.90;;;;;;5095899;28;20031;-68
2022/05/15 00:28:13;;;;;;;26.40;9.10;;;11.70;99.90;;;;;;5115095;28;20390;-68
2022/05/15 00:30:40;;;;;;;22.67;8.57;;;11.70;99.90;;;;;;5115109;28;20164;-68
2022/05/15 00:33:06;;;;;;;25.83;8.02;;;11.70;99.90;;;;;;5079913;28;20060;-68
2022/05/15 00:35:35;;;;;;;31.48;8.90;;;11.60;99.90;;;;;;5114992;28;20027;-68
2022/05/15 00:38:01;;;;;;;27.48;8.50;;;11.60;99.90;;;;;;5114903;28;20027;-68
2022/05/15 00:40:26;;;;;;;21.77;7.97;;;11.50;99.90;;;;;;5079717;28;20024;-68
2022/05/15 00:42:52;;;;;;;23.63;8.68;;;11.40;99.90;;;;;;5096695;28;20081;-68
2022/05/15 00:45:20;;;;;;;21.75;8.07;;;11.40;99.90;;;;;;5115073;28;20082;-68
2022/05/15 00:47:47;;;;;;;29.30;9.25;;;11.30;99.90;;;;;;5114831;28;20377;-68
2022/05/15 00:50:16;;;;;;;34.33;9.65;;;11.20;99.90;;;;;;5114675;28;20066;-68
2022/05/15 00:52:45;;;;;;;27.35;8.82;;;11.30;99.90;;;;;;5096463;28;20027;-68
2022/05/15 00:55:16;;;;;;;35.92;9.55;;;11.20;99.90;;;;;;5114726;28;20119;-68
2022/05/15 00:57:47;;;;;;;25.60;9.43;;;11.30;99.90;;;;;;5079907;28;20502;-68
2022/05/15 01:00:19;;;;;;;29.40;10.15;;;11.20;99.90;;;;;;5096909;28;20156;-68
2022/05/15 01:02:51;;;;;;;23.88;9.35;;;11.20;99.90;;;;;;5114187;28;20043;-68
2022/05/15 01:05:17;;;;;;;27.95;8.70;;;11.30;99.90;;;;;;5096377;28;20020;-68
2022/05/15 01:07:43;;;;;;;29.55;9.13;;;11.30;99.90;;;;;;5096237;28;20111;-68
2022/05/15 01:10:09;;;;;;;30.33;9.20;;;11.20;99.90;;;;;;5114315;28;20073;-68
2022/05/15 01:12:38;;;;;;;25.58;8.73;;;11.20;99.90;;;;;;5114300;28;20023;-68
2022/05/15 01:15:04;;;;;;;29.02;8.93;;;11.20;99.90;;;;;;5114254;28;20032;-68
2022/05/15 01:17:29;;;;;;;22.45;8.77;;;11.10;99.90;;;;;;5114269;28;20551;-68
2022/05/15 01:20:07;;;;;;;23.25;8.13;;;11.10;99.90;;;;;;5078968;28;20446;-68
2022/05/15 01:22:33;;;;;;;27.95;9.50;;;11.00;99.90;;;;;;5095762;28;20057;-68
2022/05/15 01:24:58;;;;;;;31.55;9.32;;;11.00;99.90;;;;;;5114125;28;20023;-68
2022/05/15 01:27:24;;;;;;;25.63;9.23;;;10.90;99.90;;;;;;5114048;28;20023;-68
2022/05/15 01:29:50;;;;;;;23.73;8.40;;;10.90;99.90;;;;;;5095776;28;20114;-68
2022/05/15 01:32:16;;;;;;;21.65;8.95;;;10.80;99.90;;;;;;5113936;28;20024;-68
2022/05/15 01:34:42;;;;;;;23.83;8.85;;;10.80;99.90;;;;;;5113947;28;20027;-68
2022/05/15 01:37:09;;;;;;;22.98;9.07;;;10.70;99.90;;;;;;5078601;28;20370;-68
2022/05/15 01:39:35;;;;;;;25.02;8.85;;;10.70;99.90;;;;;;5113882;28;20370;-68
2022/05/15 01:42:02;;;;;;;27.52;9.38;;;10.60;99.90;;;;;;5113812;28;20472;-68
2022/05/15 01:44:29;;;;;;;29.92;9.93;;;10.50;99.90;;;;;;5114078;28;20016;-68
2022/05/15 01:46:55;;;;;;;29.80;10.63;;;10.50;99.90;;;;;;5113796;28;20019;-68
2022/05/15 01:49:21;;;;;;;36.70;9.85;;;10.50;99.90;;;;;;5113753;28;20072;-68
2022/05/15 01:51:46;;;;;;;22.17;9.10;;;10.40;99.90;;;;;;5113706;28;20110;-68
2022/05/15 01:54:12;;;;;;;20.73;9.52;;;10.30;99.90;;;;;;5113693;28;20019;-68
2022/05/15 01:56:39;;;;;;;24.35;9.77;;;10.30;99.90;;;;;;5113682;28;20015;-68
2022/05/15 01:59:06;;;;;;;30.05;10.32;;;10.20;99.90;;;;;;5095370;28;20031;-68
2022/05/15 02:01:31;;;;;;;28.60;9.75;;;10.20;99.90;;;;;;5113416;28;20063;-68
2022/05/15 02:03:57;;;;;;;28.00;9.82;;;10.20;99.90;;;;;;5095319;28;20493;-68
2022/05/15 02:06:22;;;;;;;34.20;10.32;;;10.20;99.90;;;;;;5113646;28;20019;-68
2022/05/15 02:08:48;;;;;;;34.08;10.45;;;10.10;99.90;;;;;;5113627;28;20020;-68
2022/05/15 02:11:14;;;;;;;31.35;9.43;;;10.10;99.90;;;;;;5095198;28;20439;-68
2022/05/15 02:13:40;;;;;;;25.60;10.10;;;10.10;99.90;;;;;;5113536;28;20020;-68
2022/05/15 02:16:07;;;;;;;24.17;8.98;;;;;;;;;;5095302;28;20032;-68
2022/05/15 02:18:33;;;;;;;29.27;10.05;;;10.00;99.90;;;;;;5113557;28;20031;-68
2022/05/15 02:20:58;;;;;;;26.30;9.95;;;9.90;99.90;;;;;;5095373;28;20020;-68
2022/05/15 02:23:26;;;;;;;25.50;9.63;;;9.90;99.90;;;;;;5113665;28;20031;-68
2022/05/15 02:25:52;;;;;;;21.90;8.98;;;9.90;99.90;;;;;;5095728;28;20011;-68
2022/05/15 02:28:18;;;;;;;22.73;9.35;;;9.90;99.90;;;;;;5113376;28;20103;-68
2022/05/15 02:30:43;;;;;;;32.28;10.32;;;9.80;99.90;;;;;;5095224;28;20118;-68
2022/05/15 02:33:09;;;;;;;27.05;10.02;;;9.80;99.90;;;;;;5113379;28;20027;-68
2022/05/15 02:35:34;;;;;;;24.73;9.43;;;9.70;99.90;;;;;;5113294;28;20470;-68
2022/05/15 02:38:00;;;;;;;23.90;9.50;;;9.70;99.90;;;;;;5095249;28;20034;-68
2022/05/15 02:40:26;;;;;;;28.38;9.95;;;9.60;99.90;;;;;;5095111;28;20482;-68
2022/05/15 02:42:55;;;;;;;27.58;9.93;;;9.60;99.90;;;;;;5113288;28;20024;-68
2022/05/15 02:45:21;;;;;;;23.90;9.45;;;9.50;99.90;;;;;;5095788;28;20027;-67
2022/05/15 02:47:47;;;;;;;26.33;10.38;;;9.40;99.90;;;;;;5095194;28;20386;-68
2022/05/15 02:52:59;;;;;;;29.40;10.23;;;9.30;99.90;;;;;;5116823;28;20110;-68
2022/05/15 02:55:25;;;;;;;34.22;11.05;;;9.30;99.90;;;;;;5117010;28;20109;-68
2022/05/15 02:57:51;;;;;;;32.60;11.50;;;9.30;99.90;;;;;;5117058;28;20077;-68
2022/05/15 03:00:18;;;;;;;27.40;11.05;;;9.20;99.90;;;;;;5117107;28;20030;-68
2022/05/15 03:02:44;;;;;;;24.83;10.48;;;9.30;99.90;;;;;;5098322;28;20097;-68
2022/05/15 03:05:12;;;;;;;18.65;9.05;;;9.20;99.90;;;;;;5116779;28;20023;-68
2022/05/15 03:07:37;;;;;;;21.20;8.90;;;9.20;99.90;;;;;;5098433;28;20039;-68
2022/05/15 03:10:04;;;;;;;19.90;9.32;;;9.20;99.90;;;;;;5116726;28;20023;-68
2022/05/15 03:12:30;;;;;;;20.13;9.32;;;9.10;99.90;;;;;;5116629;28;20096;-67
2022/05/15 03:14:56;;;;;;;22.58;9.65;;;9.10;99.90;;;;;;5116671;28;20472;-68
2022/05/15 03:17:21;;;;;;;21.38;8.85;;;9.00;99.90;;;;;;5098579;28;20385;-68
2022/05/15 03:19:47;;;;;;;23.30;9.93;;;9.00;99.90;;;;;;5116508;28;20069;-67
2022/05/15 03:22:13;;;;;;;21.95;9.05;;;8.90;99.90;;;;;;5116383;28;20047;-68
2022/05/15 03:24:39;;;;;;;21.15;9.35;;;8.90;99.90;;;;;;5098163;28;20058;-68
2022/05/15 03:27:05;;;;;;;23.30;9.45;;;8.90;99.90;;;;;;5098475;28;20023;-68
2022/05/15 03:29:30;;;;;;;20.25;9.35;;;8.80;99.90;;;;;;5098336;28;20019;-68
2022/05/15 03:31:56;;;;;;;21.15;9.48;;;8.80;99.90;;;;;;5116288;28;20024;-68
2022/05/15 03:34:22;;;;;;;27.95;9.65;;;8.70;99.90;;;;;;5116339;28;20100;-67
2022/05/15 03:36:51;;;;;;;24.85;10.35;;;8.70;99.90;;;;;;5098165;28;20411;-68
2022/05/15 03:39:19;;;;;;;23.05;10.70;;;8.70;99.90;;;;;;5116083;28;20020;-68
2022/05/15 03:41:46;;;;;;;21.15;9.95;;;8.70;99.90;;;;;;5116282;28;20069;-68
2022/05/15 03:44:11;;;;;;;20.00;10.15;;;8.70;99.90;;;;;;5116063;28;20092;-68
2022/05/15 03:46:39;;;;;;;25.80;11.00;;;8.70;99.90;;;;;;5116021;28;20106;-68
2022/05/15 03:49:05;;;;;;;30.80;12.35;;;8.70;99.90;;;;;;5115960;28;20030;-68
2022/05/15 03:51:31;;;;;;;23.73;11.40;;;8.70;99.90;;;;;;5116136;28;20031;-68
2022/05/15 03:53:56;;;;;;;26.77;11.25;;;8.80;99.90;;;;;;5115805;28;20023;-68
2022/05/15 03:56:49;;;;;;;23.77;11.35;;;8.80;99.90;;;;;;5115945;28;20473;-68
2022/05/15 03:59:09;;;;;;;19.90;9.75;;;8.80;99.90;;;;;;5115415;28;20106;-68
2022/05/15 04:01:35;;;;;;;23.00;10.85;;;8.90;99.90;;;;;;5115487;28;20047;-67
2022/05/15 04:04:00;;;;;;;26.65;12.70;;;8.90;99.90;;;;;;5115748;28;20031;-68
2022/05/15 04:06:26;;;;;;;31.17;13.52;;;9.00;99.90;;;;;;5115799;28;20023;-68
2022/05/15 04:08:51;;;;;;;28.88;13.45;;;9.10;99.90;;;;;;5115721;28;20028;-68
2022/05/15 04:11:18;;;;;;;31.23;13.40;;;9.10;99.90;;;;;;5115776;28;20094;-67
2022/05/15 04:13:44;;;;;;;28.02;13.38;;;9.10;99.90;;;;;;5115478;28;20501;-68
2022/05/15 04:16:10;;;;;;;33.00;14.20;;;9.20;99.90;;;;;;5097306;28;20024;-68
2022/05/15 04:18:35;;;;;;;29.30;14.13;;;9.20;99.90;;;;;;5115386;28;20027;-68
2022/05/15 04:21:01;;;;;;;32.28;15.57;;;9.20;99.90;;;;;;5115270;28;20028;-68
2022/05/15 04:23:27;;;;;;;35.65;15.77;;;9.20;99.90;;;;;;5115483;28;20473;-68
2022/05/15 04:25:52;;;;;;;32.33;14.35;;;9.40;99.90;;;;;;5115224;28;20066;-68
2022/05/15 04:28:18;;;;;;;39.65;17.10;;;9.50;99.90;;;;;;5096918;28;20367;-68
2022/05/15 04:30:43;;;;;;;36.35;16.30;;;9.60;99.90;;;;;;5115117;28;20027;-68
2022/05/15 04:33:09;;;;;;;37.78;16.58;;;9.80;99.90;;;;;;5096895;28;20363;-68
2022/05/15 04:35:34;;;;;;;35.72;15.23;;;10.20;99.90;;;;;;5114948;28;20115;-68
2022/05/15 04:38:00;;;;;;;27.45;11.75;;;11.20;99.90;;;;;;5096915;28;20466;-68
2022/05/15 04:40:26;;;;;;;25.52;12.18;;;;;;;;;;5114942;28;20067;-68
2022/05/15 04:42:51;;;;;;;25.40;11.68;;;13.00;99.90;;;;;;5114847;28;20028;-66
2022/05/15 04:45:17;;;;;;;24.05;9.93;;;15.00;99.90;;;;;;5115062;28;20020;-66
2022/05/15 04:47:45;;;;;;;22.83;9.38;;;15.00;99.90;;;;;;5114888;28;20095;-66
2022/05/15 04:50:11;;;;;;;19.92;9.20;;;15.60;99.90;;;;;;5114667;28;20023;-66
2022/05/15 04:52:37;;;;;;;19.90;8.40;;;;;;;;;;5096489;28;20035;-66
2022/05/15 04:55:03;;;;;;;18.50;8.95;;;15.60;99.90;;;;;;5114667;28;20039;-66
2022/05/15 04:57:28;;;;;;;20.40;9.10;;;15.20;99.90;;;;;;5114681;28;20424;-66
2022/05/15 04:59:54;;;;;;;23.02;9.57;;;14.90;99.90;;;;;;5114460;28;20073;-66
2022/05/15 05:02:19;;;;;;;26.33;9.73;;;14.60;99.90;;;;;;5114356;28;20075;-68
2022/05/15 05:04:45;;;;;;;20.50;9.13;;;14.30;99.90;;;;;;5114598;28;20068;-66
2022/05/15 05:07:10;;;;;;;18.45;8.73;;;13.80;99.90;;;;;;5114681;28;20017;-66
2022/05/15 05:09:38;;;;;;;22.58;9.07;;;13.40;99.90;;;;;;5114434;28;20023;-66
2022/05/15 05:12:04;;;;;;;22.48;9.27;;;13.40;99.90;;;;;;5113881;28;20102;-66
2022/05/15 05:14:29;;;;;;;25.98;9.15;;;13.20;99.90;;;;;;5114334;28;20061;-66
2022/05/15 05:16:55;;;;;;;24.67;10.27;;;13.10;99.90;;;;;;5114371;28;20027;-66
2022/05/15 05:19:20;;;;;;;24.45;9.50;;;13.10;99.90;;;;;;5114330;28;20099;-66
2022/05/15 05:21:46;;;;;;;22.80;10.27;;;13.10;99.90;;;;;;5079184;28;20058;-66
2022/05/15 05:24:11;;;;;;;18.60;9.07;;;13.30;99.90;;;;;;5114259;28;20034;-68
2022/05/15 05:26:37;;;;;;;19.27;8.77;;;13.60;99.90;;;;;;5095929;28;20381;-66
2022/05/15 05:29:03;;;;;;;24.45;9.13;;;13.70;99.90;;;;;;5079044;28;20024;-66
2022/05/15 05:31:29;;;;;;;17.98;7.68;;;14.30;99.90;;;;;;5095851;28;20023;-66
2022/05/15 05:33:55;;;;;;;18.35;8.15;;;15.60;99.90;;;;;;5095997;28;20107;-66
2022/05/15 05:36:23;;;;;;;19.95;7.15;;;18.50;99.90;;;;;;5114077;28;20020;-67
2022/05/15 05:38:48;;;;;;;21.27;7.93;;;18.40;99.90;;;;;;5095708;28;20023;-67
2022/05/15 05:41:14;;;;;;;19.67;7.43;;;19.70;99.90;;;;;;5114075;28;20073;-67
2022/05/15 05:43:40;;;;;;;14.20;6.35;;;20.60;99.90;;;;;;5113867;28;20111;-67
2022/05/15 05:46:05;;;;;;;14.60;6.15;;;21.90;99.20;;;;;;5113846;28;20016;-67
2022/05/15 05:48:31;;;;;;;19.02;7.18;;;21.90;96.10;;;;;;5113861;28;20019;-67
2022/05/15 05:50:57;;;;;;;13.73;6.63;;;21.80;95.30;;;;;;5113834;28;20448;-67
2022/05/15 05:53:23;;;;;;;15.25;6.65;;;22.30;92.50;;;;;;5113956;28;20102;-67
2022/05/15 05:55:49;;;;;;;12.88;6.18;;;22.30;92.40;;;;;;5095620;28;20028;-67
2022/05/15 05:58:14;;;;;;;13.27;5.88;;;22.70;91.50;;;;;;5095700;28;20554;-67
2022/05/15 06:00:40;;;;;;;15.48;6.35;;;23.20;90.40;;;;;;5113828;28;20078;-67
2022/05/15 06:05:52;;;;;;;19.63;6.35;;;24.40;82.30;;;;;;5113348;28;20027;-67
2022/05/15 06:08:18;;;;;;;14.73;5.88;;;24.30;79.10;;;;;;5113568;28;20032;-67
2022/05/15 06:10:45;;;;;;;18.23;6.35;;;24.10;80.10;;;;;;5095701;28;20034;-67
2022/05/15 06:13:10;;;;;;;14.52;5.90;;;24.10;78.20;;;;;;5095291;28;20054;-67
2022/05/15 06:15:37;;;;;;;14.90;6.10;;;24.10;78.60;;;;;;5113606;28;20027;-67
2022/05/15 06:18:04;;;;;;;13.05;6.10;;;24.20;78.90;;;;;;5095303;28;20040;-67
2022/05/15 06:20:30;;;;;;;15.18;6.15;;;24.80;75.30;;;;;;5113529;28;20119;-67
2022/05/15 06:22:56;;;;;;;12.88;6.20;;;25.20;73.20;;;;;;5113870;28;20072;-67
2022/05/15 06:25:22;;;;;;;16.05;6.28;;;24.90;74.40;;;;;;5117702;28;20022;-67
2022/05/15 06:27:48;;;;;;;15.68;6.22;;;25.20;72.60;;;;;;5099279;28;20024;-67
2022/05/15 06:30:14;;;;;;;16.08;5.80;;;25.30;71.80;;;;;;5117637;28;20049;-67
2022/05/15 06:32:39;;;;;;;15.63;5.88;;;25.90;70.20;;;;;;5117456;28;20024;-67
2022/05/15 06:35:07;;;;;;;13.63;6.07;;;25.00;70.40;;;;;;5117468;28;20019;-67
2022/05/15 06:37:32;;;;;;;15.57;5.93;;;25.00;72.20;;;;;;5099147;28;20556;-67
2022/05/15 06:39:58;;;;;;;13.98;6.07;;;25.40;69.30;;;;;;5117257;28;20059;-67
2022/05/15 06:42:23;;;;;;;13.35;6.15;;;24.60;73.70;;;;;;5117526;28;20498;-67
2022/05/15 06:44:49;;;;;;;18.40;6.70;;;25.90;70.20;;;;;;5117509;28;20024;-67
2022/05/15 06:47:15;;;;;;;12.23;5.35;;;26.20;68.30;;;;;;5098903;28;20525;-67
2022/05/15 06:49:40;;;;;;;15.10;6.22;;;26.80;66.80;;;;;;5117154;28;20386;-67
2022/05/15 06:52:06;;;;;;;12.70;6.13;;;27.00;65.50;;;;;;5081979;28;20023;-67
2022/05/15 06:54:32;;;;;;;14.40;5.30;;;25.60;68.80;;;;;;5117299;28;20026;-67
2022/05/15 06:57:28;;;;;;;15.60;5.38;;;26.00;67.50;;;;;;5117254;28;20028;-67
2022/05/15 06:59:43;;;;;;;13.15;5.75;;;25.40;68.80;;;;;;5117074;28;20454;-67
2022/05/15 07:02:08;;;;;;;15.40;5.70;;;24.80;72.30;;;;;;5116881;28;20063;-67
2022/05/15 07:04:34;;;;;;;14.27;6.18;;;24.90;74.20;;;;;;5098860;28;20059;-67
2022/05/15 07:07:00;;;;;;;14.50;5.65;;;25.90;70.30;;;;;;5117072;28;20413;-67
2022/05/15 07:09:27;;;;;;;14.80;6.65;;;26.10;67.30;;;;;;5098575;28;20026;-67
2022/05/15 07:11:53;;;;;;;14.82;5.78;;;25.70;68.90;;;;;;5116700;28;20024;-67
2022/05/15 07:14:18;;;;;;;14.48;5.45;;;25.70;70.90;;;;;;5098387;28;20546;-67
2022/05/15 07:16:44;;;;;;;12.75;5.57;;;26.20;69.80;;;;;;5116637;28;20500;-67
2022/05/15 07:19:10;;;;;;;14.27;5.40;;;25.60;68.00;;;;;;5098294;28;20486;-67
2022/05/15 07:21:35;;;;;;;15.35;5.30;;;25.80;67.40;;;;;;5116509;28;20051;-67
2022/05/15 07:24:01;;;;;;;16.13;5.53;;;25.00;69.60;;;;;;5116615;28;20016;-67
2022/05/15 07:26:26;;;;;;;16.60;5.63;;;25.50;70.10;;;;;;5116467;28;20028;-67
2022/05/15 07:28:52;;;;;;;14.82;5.63;;;26.40;67.30;;;;;;5116541;28;20028;-67
2022/05/15 07:31:19;;;;;;;15.13;5.45;;;27.10;65.80;;;;;;5116357;28;20023;-67
2022/05/15 07:33:46;;;;;;;13.05;5.18;;;26.20;69.20;;;;;;5097498;28;20028;-67
2022/05/15 07:36:11;;;;;;;14.38;5.75;;;26.80;67.00;;;;;;5098057;28;20023;-67
2022/05/15 07:38:37;;;;;;;12.35;5.15;;;26.90;66.80;;;;;;5116239;28;20031;-67
2022/05/15 07:41:03;;;;;;;14.88;6.03;;;26.40;69.20;;;;;;5116163;28;20179;-67
2022/05/15 07:43:29;;;;;;;14.38;5.32;;;26.80;66.30;;;;;;5116298;28;20070;-67
2022/05/15 07:45:54;;;;;;;13.07;5.22;;;27.10;67.20;;;;;;5097999;28;20058;-67
2022/05/15 07:48:20;;;;;;;13.48;5.10;;;26.90;66.40;;;;;;5116003;28;20063;-67
2022/05/15 07:50:48;;;;;;;15.13;5.57;;;27.60;67.70;;;;;;5116035;28;20028;-67
2022/05/15 07:53:13;;;;;;;16.15;5.07;;;28.20;63.20;;;;;;5116061;28;20431;-68
2022/05/15 07:55:39;;;;;;;14.35;4.68;;;28.00;64.00;;;;;;5115976;28;20027;-67
2022/05/15 07:58:05;;;;;;;10.88;4.63;;;27.90;66.00;;;;;;5116013;28;20397;-67
2022/05/15 08:00:31;;;;;;;11.70;4.90;;;28.20;61.00;;;;;;5116017;28;20058;-67
2022/05/15 08:03:01;;;;;;;13.27;4.72;;;28.40;60.50;;;;;;5115631;28;20047;-67
2022/05/15 08:08:12;;;;;;;14.48;5.45;;;28.30;61.70;;;;;;5115525;28;20024;-67
2022/05/15 08:10:42;;;;;;;18.50;5.45;;;27.20;64.30;;;;;;5097435;28;20026;-67
2022/05/15 08:13:10;;;;;;;15.63;5.35;;;27.40;65.30;;;;;;5115711;28;20015;-67
2022/05/15 08:15:37;;;;;;;15.52;5.03;;;27.90;62.80;;;;;;5115703;28;20020;-67
2022/05/15 08:23:44;;;;;;;15.27;5.65;;;28.90;57.00;;;;;;5115391;28;20071;-67
2022/05/15 08:26:11;;;;;;;13.85;5.57;;;28.90;57.50;;;;;;5098223;28;20478;-67
2022/05/15 08:28:36;;;;;;;13.82;6.18;;;28.50;58.40;;;;;;5097402;28;20015;-67
2022/05/15 08:31:03;;;;;;;16.73;6.03;;;28.90;57.30;;;;;;5115594;28;20034;-67
2022/05/15 08:33:30;;;;;;;14.73;5.70;;;28.90;56.30;;;;;;5115174;28;20501;-67
2022/05/15 08:35:56;;;;;;;13.82;5.63;;;29.00;55.80;;;;;;5115515;28;20526;-67
2022/05/15 08:38:22;;;;;;;11.25;4.32;;;28.20;56.70;;;;;;5115025;28;20027;-67
2022/05/15 08:40:55;;;;;;;14.60;4.90;;;28.70;54.80;;;;;;5096997;28;20078;-67
2022/05/15 08:43:36;;;;;;;10.27;4.15;;;29.10;55.60;;;;;;5097221;28;20450;-67
2022/05/15 08:46:13;;;;;;;12.43;4.50;;;29.50;53.80;;;;;;5096318;28;20362;-67
2022/05/15 08:48:38;;;;;;;13.23;4.60;;;29.70;55.30;;;;;;5114924;28;20102;-67
2022/05/15 08:51:06;;;;;;;15.10;4.43;;;30.00;53.00;;;;;;5115113;28;20114;-67
2022/05/15 08:53:35;;;;;;;15.30;4.45;;;28.90;52.60;;;;;;5115086;28;20028;-67
2022/05/15 08:56:07;;;;;;;14.93;4.85;;;29.20;53.80;;;;;;5115104;28;20042;-67
2022/05/15 08:58:43;;;;;;;16.17;4.47;;;28.70;52.60;;;;;;5114949;28;20028;-67
2022/05/15 09:01:12;;;;;;;12.02;4.28;;;27.90;51.70;;;;;;5096328;28;20028;-67
2022/05/15 09:03:38;;;;;;;11.07;4.53;;;27.20;54.00;;;;;;5115001;28;20031;-67
2022/05/15 09:06:12;;;;;;;14.95;5.07;;;27.20;56.70;;;;;;5114887;28;20028;-67
2022/05/15 09:12:06;;;;;;;13.55;4.65;;;27.80;53.50;;;;;;5090804;27;20496;-67
2022/05/15 09:14:57;;;;;;;11.38;4.57;;;27.20;52.20;;;;;;5089690;28;20433;-67
2022/05/15 09:17:35;;;;;;;15.38;4.65;;;26.80;52.40;;;;;;5089491;28;20386;-67
2022/05/15 09:20:07;;;;;;;14.43;4.97;;;27.50;53.40;;;;;;5090796;28;20016;-68
2022/05/15 09:22:38;;;;;;;14.30;4.50;;;28.00;51.70;;;;;;5090836;28;20029;-70
2022/05/15 09:25:23;;;;;;;17.52;5.47;;;28.50;50.90;;;;;;5090901;28;20040;-69
2022/05/15 09:28:01;;;;;;;14.60;4.70;;;29.00;51.20;;;;;;5090658;28;20517;-68
2022/05/15 09:30:45;;;;;;;15.70;5.22;;;27.70;53.50;;;;;;5090435;28;20035;-68
2022/05/15 09:33:33;;;;;;;14.73;5.40;;;27.50;52.90;;;;;;5090676;28;20016;-67
2022/05/15 09:36:28;;;;;;;15.20;4.78;;;27.60;52.00;;;;;;5089436;28;20409;-67
2022/05/15 09:39:16;;;;;;;16.33;5.40;;;27.70;51.20;;;;;;5090346;28;20386;-67
2022/05/15 09:44:33;;;;;;;12.52;4.45;;;28.00;51.80;;;;;;5089984;28;20056;-67
2022/05/15 09:47:19;;;;;;;12.15;4.90;;;27.10;55.80;;;;;;5090298;28;20027;-67
2022/05/15 09:49:45;;;;;;;15.13;4.72;;;28.00;53.60;;;;;;5089970;28;20028;-67
2022/05/15 09:52:19;;;;;;;12.60;4.18;;;27.10;52.50;;;;;;5088855;28;20020;-67
2022/05/15 09:54:48;;;;;;;13.70;4.60;;;27.30;53.50;;;;;;5088961;28;20023;-67
2022/05/15 09:57:22;;;;;;;13.13;4.15;;;27.80;52.30;;;;;;5090173;28;20020;-67
2022/05/15 10:00:09;;;;;;;15.40;4.85;;;28.70;52.30;;;;;;5089912;28;20531;-67
2022/05/15 10:02:45;;;;;;;14.57;4.15;;;28.70;53.70;;;;;;5089911;28;20063;-67
2022/05/15 10:05:23;;;;;;;13.90;4.10;;;28.30;52.90;;;;;;5089769;28;20115;-68
2022/05/15 10:08:00;;;;;;;10.35;3.97;;;28.40;53.00;;;;;;5089795;28;20028;-68
2022/05/15 10:10:32;;;;;;;11.82;3.75;;;28.20;52.40;;;;;;5089418;28;20422;-66
2022/05/15 10:13:10;;;;;;;15.02;4.80;;;28.80;52.30;;;;;;5089694;28;20070;-66
2022/05/15 10:15:41;;;;;;;12.95;3.50;;;29.30;53.10;;;;;;5088369;28;20394;-66
2022/05/15 10:18:09;;;;;;;12.95;4.18;;;29.40;50.40;;;;;;5089704;28;20474;-66
2022/05/15 10:20:39;;;;;;;11.07;4.22;;;29.30;51.30;;;;;;5088180;28;20161;-67
2022/05/15 10:23:11;;;;;;;14.65;4.35;;;29.00;49.50;;;;;;5075474;28;20033;-66
2022/05/15 10:25:58;;;;;;;18.70;4.50;;;28.50;50.40;;;;;;5074824;28;20021;-68
2022/05/15 10:28:32;;;;;;;17.67;4.80;;;28.20;51.90;;;;;;5075674;28;20035;-68
2022/05/15 10:31:23;;;;;;;16.15;4.72;;;28.70;50.60;;;;;;5075690;28;20036;-67
2022/05/15 10:33:53;;;;;;;18.33;4.90;;;28.50;50.60;;;;;;5074410;28;20029;-67
2022/05/15 10:37:01;;;;;;;13.85;4.15;;;28.00;50.30;;;;;;5074347;28;20051;-67
2022/05/15 10:40:06;;;;;;;13.60;4.45;;;28.50;52.80;;;;;;5074338;28;20020;-67
2022/05/15 10:42:58;;;;;;;12.80;4.57;;;28.20;52.80;;;;;;5075503;28;20605;-67
2022/05/15 10:45:36;;;;;;;14.82;4.38;;;28.30;52.20;;;;;;5075392;28;20474;-69
2022/05/15 10:48:19;;;;;;;14.63;4.60;;;27.80;53.30;;;;;;5075481;28;20544;-68
2022/05/15 10:51:12;;;;;;;10.52;3.83;;;27.60;53.40;;;;;;5073976;28;20028;-67
2022/05/15 10:59:38;;;;;;;14.50;4.18;;;26.70;56.20;;;;;;5090927;28;20401;-69
2022/05/15 11:02:24;;;;;;;12.68;4.22;;;26.20;56.10;;;;;;5090671;28;20043;-69
2022/05/15 11:05:04;;;;;;;10.30;3.97;;;25.70;54.60;;;;;;5090615;28;20016;-69
2022/05/15 11:07:49;;;;;;;8.40;3.97;;;25.60;56.30;;;;;;5091005;28;20486;-68
2022/05/15 11:10:43;;;;;;;14.75;3.97;;;25.90;54.70;;;;;;5090967;28;20028;-69
2022/05/15 11:13:17;;;;;;;13.75;4.00;;;26.00;53.40;;;;;;5090628;28;20028;-69
2022/05/15 11:15:57;;;;;;;13.05;3.97;;;26.20;53.50;;;;;;5089694;28;20107;-67
2022/05/15 11:18:47;;;;;;;18.55;4.22;;;26.50;54.00;;;;;;5090643;28;20024;-68
2022/05/15 11:21:22;;;;;;;11.88;4.90;;;26.40;55.10;;;;;;5089405;28;20048;-68
2022/05/15 11:23:55;;;;;;;10.00;4.55;;;25.80;53.70;;;;;;5089392;28;20020;-68
2022/05/15 11:26:41;;;;;;;15.68;4.22;;;25.40;53.80;;;;;;5089333;28;20021;-68
2022/05/15 11:29:12;;;;;;;13.38;3.65;;;25.10;53.20;;;;;;5090337;28;20539;-68
2022/05/15 11:31:44;;;;;;;14.75;3.65;;;25.50;53.90;;;;;;5089308;28;20030;-68
2022/05/15 11:34:11;;;;;;;8.75;4.32;;;26.00;55.40;;;;;;5090292;28;20047;-67
2022/05/15 11:36:39;;;;;;;13.85;4.38;;;25.60;53.60;;;;;;5089227;28;20032;-68
2022/05/15 11:39:18;;;;;;;10.85;3.92;;;25.70;52.40;;;;;;5090133;28;20025;-68
2022/05/15 11:44:43;;;;;;;9.52;3.75;;;25.70;52.70;;;;;;5111465;27;20298;-68
2022/05/15 11:47:24;;;;;;;16.05;3.85;;;25.90;53.70;;;;;;5110266;28;20032;-69
2022/05/15 11:50:14;;;;;;;10.32;3.65;;;26.00;55.30;;;;;;5110325;28;20077;-69
2022/05/15 11:53:04;;;;;;;10.93;3.90;;;26.10;53.30;;;;;;5111268;28;20047;-69
2022/05/15 11:58:36;;;;;;;15.00;3.97;;;25.60;52.80;;;;;;5111378;27;20343;-68
2022/05/15 12:01:07;;;;;;;12.88;3.53;;;25.40;53.90;;;;;;5110308;28;20490;-69
2022/05/15 12:03:46;;;;;;;9.95;4.30;;;25.50;53.70;;;;;;5110169;28;20031;-69
2022/05/15 12:06:17;;;;;;;12.00;4.60;;;25.30;52.70;;;;;;5111373;28;20020;-69
2022/05/15 12:08:48;;;;;;;13.45;3.53;;;25.40;54.90;;;;;;5093001;28;20448;-69
2022/05/15 12:11:32;;;;;;;12.85;3.80;;;25.50;54.10;;;;;;5111200;28;20060;-69
2022/05/15 12:14:00;;;;;;;12.82;4.03;;;25.80;54.90;;;;;;5110019;28;20031;-69
2022/05/15 12:16:33;;;;;;;10.13;3.38;;;26.00;52.70;;;;;;5110138;28;20028;-69
2022/05/15 12:19:23;;;;;;;11.30;3.60;;;26.10;53.50;;;;;;5111326;28;20430;-69
2022/05/15 12:21:53;;;;;;;13.95;3.80;;;25.80;53.80;;;;;;5109570;28;20371;-69
2022/05/15 12:24:34;;;;;;;11.18;3.42;;;25.80;51.50;;;;;;5109471;28;20086;-69
2022/05/15 12:27:21;;;;;;;9.85;3.03;;;25.60;53.10;;;;;;5110967;28;20050;-69
2022/05/15 12:30:12;;;;;;;14.10;4.25;;;25.80;54.40;;;;;;5110717;28;20028;-69
2022/05/15 12:32:42;;;;;;;10.80;4.03;;;25.70;53.20;;;;;;5110811;28;20060;-69
2022/05/15 12:35:32;;;;;;;10.10;3.45;;;26.00;53.90;;;;;;5110676;28;20038;-68
2022/05/15 12:38:06;;;;;;;10.93;4.13;;;26.20;54.00;;;;;;5110363;28;20434;-68
2022/05/15 12:40:39;;;;;;;11.10;3.42;;;25.70;53.20;;;;;;5110633;28;20485;-68
2022/05/15 12:43:39;;;;;;;13.15;3.25;;;25.80;55.00;;;;;;5110466;28;20055;-68
2022/05/15 12:46:05;;;;;;;11.40;3.45;;;25.60;53.10;;;;;;5109509;28;20020;-68
2022/05/15 12:48:37;;;;;;;8.43;3.38;;;25.50;53.60;;;;;;5110307;28;20481;-68
2022/05/15 12:51:09;;;;;;;7.25;2.97;;;25.70;52.70;;;;;;5092372;28;20073;-68
2022/05/15 12:53:43;;;;;;;9.50;3.28;;;25.90;55.50;;;;;;5110304;28;20055;-68
2022/05/15 12:58:59;;;;;;;10.67;3.50;;;26.30;53.60;;;;;;5110189;27;20447;-69
2022/05/15 13:01:28;;;;;;;12.82;4.90;;;26.00;51.70;;;;;;5111145;28;20035;-69
2022/05/15 13:03:57;;;;;;;10.30;3.40;;;25.80;53.70;;;;;;5109992;28;20089;-69
2022/05/15 13:06:29;;;;;;;7.55;3.28;;;25.70;51.90;;;;;;5111093;28;20020;-69
2022/05/15 13:09:00;;;;;;;9.82;3.40;;;25.60;52.00;;;;;;5111092;28;20110;-68
2022/05/15 13:11:36;;;;;;;9.57;3.03;;;25.60;53.20;;;;;;5110919;28;20030;-69
2022/05/15 13:14:01;;;;;;;10.82;3.35;;;25.70;50.90;;;;;;5109584;28;20032;-68
2022/05/15 13:16:28;;;;;;;11.65;3.92;;;25.70;52.40;;;;;;5092591;28;20032;-68
2022/05/15 13:18:56;;;;;;;11.82;3.67;;;25.70;52.10;;;;;;5092465;28;20028;-68
2022/05/15 13:21:40;;;;;;;8.82;3.63;;;25.40;50.20;;;;;;5109396;28;20501;-68
2022/05/15 13:24:07;;;;;;;12.63;3.60;;;25.70;52.70;;;;;;5109402;28;20473;-68
2022/05/15 13:26:39;;;;;;;9.00;3.72;;;25.70;53.50;;;;;;5092517;28;20028;-68